Aérodrome :
LOGIN :

S'inscrire | Disclaimer

   EN    FR    IT 

 










Légende :    VFR   VFR Marginal   IFR   IFR Intensif   IFR Très Intensif
Visi : 
Plafond : 
>= 8 km
>= 3000ft
5 à 8 km
1000 à 3000 ft
1500m à 5 km
500 à 1000 ft
800 à 1500m
200 à 500 ft
< 800m
< 200 ft
Symboles :   Orages  Brouillard  Fortes neiges  Fortes précipitations  Vent > 20 kt
SIGMETs :   Divers  Orages  Givrage  Turbulence  Onde Orograph.  Cendres Volcan.






- Altitude de l'aérodrome : 161 ft


LRTZ - Tuzla Romania

DERNIER METAR :
  • 031700Z 21010KT 9999 SKC 07/03 Q1015 BLU BLU

METARs EXPIRÉS :
  • 031600Z 21010KT 9999 SKC 08/02 Q1015 BLU BLU
  • 031500Z 21010KT 9999 SKC 09/02 Q1015 BLU BLU

TAF TAF LRTZ
Valide du 03 à 18h jusqu'au 04 à 18h UTC


031700Z 0318/0418 21012KT 9999 SKC
BECMG 0321/0323 SCT200
TEMPO 0400/0404 5000 BR
BECMG 0412/0414 SCT090 BKN200



MET'MAP, la Météo Aéronautique d'un coup d'oeil ! - Copyright ORBIFLY Décembre 2007 - Disclaimer

ORBIFLY MET'MAP TEAM :

Programmation & Développement : Alexandra Zaïnal
Sur une idée originale de : Baudouin d'Aumeries
Assistance à la programmation : Marc-Olivier Méhu
Soutien technique & logistique : Manuel Goepfert

Contact : metmap@orbifly.com




SOURCES & CREDITS :

   NOAA